Alexandria International Airport Alexandria US
ICAO: KAEX
IATA: AEX
Category: Medium
Scheduled Services: Yes

Elevation: 89 ft
TransAlt. 18000 ft.

Airport Communications:
POLK APP/DEP:132.05
ASOS:123.975
CLNC DEL:121.9
CTAF:127.35
GND:121.9
TWR:127.35

KAEX Zoom In..

Runways:

(A) RW 14 length 9352 ft width 150 ft
ILS 110.10 / hdg 141

(B) RW 18 length 7001 ft width 150 ft
---- / hdg 186

(C) RW 32 length 9352 ft width 150 ft
ILS 110.10 / hdg 321

(D) RW 36 length 7001 ft width 150 ft
---- / hdg 6

Location; KAEX
Day. 24 / Time. 01.53 Zulu
* Altimeter: 30.27
* Temperature: 07° c. 44.6°f.
* Wind from: 320° Speed 03 kn.
Dewpoint: 02° c.
Visibility: 10 Statute Miles.
Clouds: Clear (automated report).

KAEX 240153Z 32003KT 10SM CLR 07/02 A3027 RMK AO2 SLP253 T00670017 $


Wind From 320°
Speed 03 kn.

YouTube Music Video
 
jpsmedia.com for Web Design  worldairports.se 2018   terms of use